Time;durP1;ratioP1;P1;durP2;ratioP2;P2;SDS_P1;SDS_P2;PMS_P1;PMS_P2;Temp;Humidity;BMP_temperature;BMP_pressure;BME280_temperature;BME280_humidity;BME280_pressure;Samples;Min_cycle;Max_cycle;Signal;HPM_P1;HPM_P2
2023/06/18 00:01:33;;;;;;;6.40;1.90;;;;;;;15.85;94.68;95852.41;5117004;28;20054;-65
2023/06/18 00:04:00;;;;;;;5.93;1.67;;;;;;;15.77;94.04;95852.94;5116782;28;20431;-67
2023/06/18 00:06:27;;;;;;;8.18;1.77;;;;;;;15.74;94.20;95857.59;5117087;27;20051;-67
2023/06/18 00:08:55;;;;;;;6.78;2.10;;;;;;;15.73;94.61;95847.97;5116820;28;20066;-67
2023/06/18 00:11:22;;;;;;;2.03;1.83;;;;;;;15.58;95.08;95858.66;5116671;28;20043;-66
2023/06/18 00:13:51;;;;;;;2.90;1.67;;;;;;;15.60;95.79;95853.28;5116880;28;20040;-65
2023/06/18 00:16:18;;;;;;;6.93;1.88;;;;;;;15.62;95.30;95856.66;5116691;28;20051;-66
2023/06/18 00:18:45;;;;;;;3.35;1.60;;;;;;;15.60;94.95;95867.31;5116609;28;20078;-66
2023/06/18 00:21:13;;;;;;;2.25;1.60;;;;;;;15.57;94.77;95864.03;5116843;28;20474;-65
2023/06/18 00:23:40;;;;;;;4.32;1.63;;;;;;;15.52;93.23;95862.56;5116537;28;20043;-67
2023/06/18 00:26:07;;;;;;;4.60;1.40;;;;;;;15.50;92.57;95868.91;5116482;28;20052;-66
2023/06/18 00:28:34;;;;;;;4.88;1.48;;;;;;;15.48;91.96;95865.50;5116429;28;20055;-68
2023/06/18 00:31:03;;;;;;;3.00;1.63;;;;;;;15.42;91.40;95864.16;5116500;28;20516;-66
2023/06/18 00:33:32;;;;;;;5.80;1.60;;;;;;;15.36;92.02;95862.78;5116429;28;20500;-65
2023/06/18 00:36:00;;;;;;;5.53;1.70;;;;;;;15.32;93.29;95868.34;5116362;28;20093;-65
2023/06/18 00:38:28;;;;;;;8.63;1.35;;;;;;;15.29;93.11;95870.25;5116152;28;20096;-66
2023/06/18 00:40:56;;;;;;;10.27;1.60;;;;;;;15.24;92.94;95882.03;5115942;28;20054;-65
2023/06/18 00:43:23;;;;;;;5.28;1.60;;;;;;;15.13;94.11;95880.13;5116223;28;20100;-67
2023/06/18 00:45:50;;;;;;;3.83;1.40;;;;;;;15.09;94.99;95884.78;5116153;28;20104;-66
2023/06/18 00:48:18;;;;;;;2.47;1.33;;;;;;;15.07;95.71;95883.16;5115905;28;20101;-66
2023/06/18 00:50:46;;;;;;;6.13;1.40;;;;;;;15.08;96.26;95884.88;5115968;28;20408;-65
2023/06/18 00:53:13;;;;;;;3.58;1.40;;;;;;;15.06;96.24;95876.22;5115909;28;20050;-66
2023/06/18 00:55:41;;;;;;;5.60;1.27;;;;;;;14.97;95.87;95880.31;5115753;28;20044;-66
2023/06/18 00:58:08;;;;;;;4.95;1.20;;;;;;;14.85;96.39;95874.91;5115790;28;20039;-68
2023/06/18 01:00:35;;;;;;;2.50;1.20;;;;;;;14.81;97.10;95869.94;5115710;28;20047;-66
2023/06/18 01:03:06;;;;;;;1.90;1.40;;;;;;;14.75;97.23;95879.06;5115779;28;20118;-68
2023/06/18 01:05:37;;;;;;;5.65;1.23;;;;;;;14.67;97.79;95879.56;5115660;28;20054;-66
2023/06/18 01:08:06;;;;;;;;;;;;;;;14.60;98.07;95876.47;5116079;27;20497;-67
2023/06/18 01:10:38;;;;;;;3.20;1.40;;;;;;;14.51;98.92;95883.19;5114757;28;19924;-66
2023/06/18 01:13:09;;;;;;;1.90;1.60;;;;;;;14.44;99.53;95883.66;5115837;28;20055;-65
2023/06/18 01:15:36;;;;;;;2.45;1.40;;;;;;;14.37;100.00;95886.72;5115568;28;20126;-68
2023/06/18 01:18:06;;;;;;;3.55;1.50;;;;;;;14.36;100.00;95886.81;5115232;28;20482;-67
2023/06/18 01:20:40;;;;;;;2.40;1.30;;;;;;;14.35;100.00;95893.00;5115377;28;20481;-66
2023/06/18 01:23:17;;;;;;;3.63;1.75;;;;;;;14.22;100.00;95895.56;5115344;28;20432;-67
2023/06/18 01:25:46;;;;;;;7.05;1.98;;;;;;;14.19;100.00;95893.97;5115382;28;20486;-65
2023/06/18 01:28:15;;;;;;;3.25;1.95;;;;;;;14.17;100.00;95890.59;5115242;28;20047;-65
2023/06/18 01:30:42;;;;;;;3.08;1.85;;;;;;;14.14;100.00;95883.75;5115382;28;20131;-66
2023/06/18 01:33:12;;;;;;;7.03;3.45;;;;;;;14.15;100.00;95890.69;5115363;28;20477;-67
2023/06/18 01:35:41;;;;;;;4.25;1.52;;;;;;;14.11;100.00;95890.97;5115216;28;20044;-64
2023/06/18 01:38:31;;;;;;;5.10;2.10;;;;;;;14.09;100.00;95896.31;5114926;28;20409;-66
2023/06/18 01:41:03;;;;;;;4.57;2.40;;;;;;;14.09;100.00;95895.50;5114903;28;20094;-65
2023/06/18 01:43:39;;;;;;;2.58;2.05;;;;;;;14.08;100.00;95902.53;5114895;28;20501;-67
2023/06/18 01:46:10;;;;;;;5.03;2.65;;;;;;;14.12;100.00;95897.94;5114872;28;20047;-68
2023/06/18 01:48:40;;;;;;;6.15;2.38;;;;;;;14.14;100.00;95896.91;5114973;28;20447;-68
2023/06/18 01:51:11;;;;;;;4.35;2.40;;;;;;;14.17;100.00;95901.09;5114730;28;20412;-68
2023/06/18 01:53:38;;;;;;;;;;;;;;;14.17;100.00;95906.38;5115190;28;20508;-66
2023/06/18 01:56:09;;;;;;;2.97;2.70;;;;;;;14.21;100.00;95912.28;5114891;28;20018;-67
2023/06/18 01:58:36;;;;;;;;;;;;;;;14.16;100.00;95909.94;5115047;28;20128;-68
2023/06/18 02:01:03;;;;;;;4.85;2.60;;;;;;;14.14;100.00;95911.81;5114667;28;19924;-66
2023/06/18 02:03:30;;;;;;;5.88;2.95;;;;;;;14.21;100.00;95913.13;5114735;28;20081;-65
2023/06/18 02:05:57;;;;;;;3.17;2.95;;;;;;;14.27;100.00;95910.09;5114618;28;20497;-68
2023/06/18 02:08:26;;;;;;;4.45;2.70;;;;;;;14.25;100.00;95916.41;5114404;28;20050;-68
2023/06/18 02:10:54;;;;;;;4.32;2.90;;;;;;;14.26;100.00;95911.06;5114503;28;20058;-68
2023/06/18 02:13:21;;;;;;;5.50;2.88;;;;;;;14.35;100.00;95922.78;5114344;28;20082;-67
2023/06/18 02:15:48;;;;;;;3.60;3.30;;;;;;;14.35;99.22;95921.94;5114359;28;20048;-65
2023/06/18 02:18:15;;;;;;;9.80;3.25;;;;;;;14.36;99.01;95921.84;5114258;28;20101;-65
2023/06/18 02:20:43;;;;;;;3.72;2.95;;;;;;;14.23;98.58;95921.78;5114333;28;20048;-68
2023/06/18 02:23:10;;;;;;;6.15;3.75;;;;;;;14.15;99.58;95921.41;5114337;28;20043;-68
2023/06/18 02:25:39;;;;;;;5.15;4.00;;;;;;;14.09;100.00;95919.16;5114167;28;20108;-67
2023/06/18 02:28:07;;;;;;;4.97;4.00;;;;;;;14.07;100.00;95932.41;5114067;28;20048;-68
2023/06/18 02:30:35;;;;;;;4.32;3.95;;;;;;;14.06;100.00;95925.44;5114074;28;20405;-66
2023/06/18 02:33:06;;;;;;;12.68;4.25;;;;;;;14.14;100.00;95930.22;5114088;28;20043;-68
2023/06/18 02:35:34;;;;;;;3.15;2.90;;;;;;;14.14;100.00;95930.22;5114098;28;20054;-67
2023/06/18 02:38:01;;;;;;;7.60;4.63;;;;;;;14.20;100.00;95929.00;5114044;28;20130;-65
2023/06/18 02:40:28;;;;;;;5.80;4.53;;;;;;;14.25;100.00;95927.78;5113499;28;20055;-66
2023/06/18 02:42:57;;;;;;;6.47;3.67;;;;;;;14.28;99.34;95932.88;5114024;28;20102;-66
2023/06/18 02:45:26;;;;;;;6.55;4.15;;;;;;;14.22;98.16;95935.00;5113830;28;20051;-65
2023/06/18 02:47:53;;;;;;;10.10;4.25;;;;;;;14.26;98.50;95944.41;5113793;28;20043;-65
2023/06/18 02:50:21;;;;;;;4.90;4.30;;;;;;;14.32;98.61;95938.75;5114030;28;20077;-65
2023/06/18 02:52:48;;;;;;;5.75;5.07;;;;;;;14.34;98.25;95939.53;5113697;28;20427;-68
2023/06/18 02:55:16;;;;;;;9.77;4.65;;;;;;;14.41;98.30;95939.97;5113761;28;20477;-65
2023/06/18 02:57:44;;;;;;;6.43;4.72;;;;;;;14.49;98.05;95944.75;5113663;28;20105;-66
2023/06/18 03:00:14;;;;;;;5.18;4.50;;;;;;;14.52;97.44;95948.03;5113662;27;20401;-66
2023/06/18 03:02:42;;;;;;;6.72;4.82;;;;;;;14.50;97.24;95944.66;5113617;28;20054;-65
2023/06/18 03:05:09;;;;;;;6.85;5.13;;;;;;;14.53;97.28;95957.63;5113517;28;20079;-66
2023/06/18 03:07:37;;;;;;;6.72;4.65;;;;;;;14.61;97.38;95957.13;5113749;28;20395;-68
2023/06/18 03:10:05;;;;;;;5.57;4.68;;;;;;;14.58;96.77;95959.09;5113638;28;20071;-65
2023/06/18 03:12:32;;;;;;;7.40;4.97;;;;;;;14.58;96.75;95959.09;5113618;28;20069;-66
2023/06/18 03:14:59;;;;;;;5.55;5.05;;;;;;;14.60;97.17;95967.75;5113499;28;20054;-68
2023/06/18 03:17:28;;;;;;;8.35;5.07;;;;;;;14.63;97.30;95970.19;5113500;28;20079;-68
2023/06/18 03:19:55;;;;;;;6.25;4.68;;;;;;;14.69;97.92;95967.16;5113424;28;20053;-66
2023/06/18 03:22:22;;;;;;;6.25;4.95;;;;;;;14.79;97.90;95970.09;5113315;28;20496;-65
2023/06/18 03:24:50;;;;;;;5.82;5.32;;;;;;;14.85;97.84;95974.09;5113426;28;20079;-65
2023/06/18 03:27:17;;;;;;;6.07;4.97;;;;;;;14.97;97.81;95972.47;5113258;28;20516;-65
2023/06/18 03:29:44;;;;;;;6.55;5.63;;;;;;;14.98;96.71;95976.78;5113388;28;20075;-66
2023/06/18 03:32:12;;;;;;;5.78;5.28;;;;;;;15.07;96.40;95978.81;5113334;28;20432;-67
2023/06/18 03:34:42;;;;;;;6.57;4.90;;;;;;;15.24;96.40;95972.47;5116096;28;20485;-66
2023/06/18 03:37:09;;;;;;;5.90;4.70;;;;;;;15.47;94.99;95979.78;5117440;28;20051;-66
2023/06/18 03:39:36;;;;;;;5.85;5.07;;;;;;;15.65;92.70;95977.69;5117370;28;20087;-67
2023/06/18 03:42:03;;;;;;;5.70;5.20;;;;;;;15.67;90.90;95983.72;5117296;28;20044;-66
2023/06/18 03:44:30;;;;;;;5.55;4.63;;;;;;;15.65;92.07;95986.44;5117232;28;20062;-67
2023/06/18 03:46:58;;;;;;;5.45;4.95;;;;;;;15.59;91.65;95991.31;5117571;28;20055;-65
2023/06/18 03:49:25;;;;;;;6.57;4.65;;;;;;;15.59;92.88;95992.13;5117265;28;20520;-67
2023/06/18 03:51:53;;;;;;;7.30;5.47;;;;;;;15.68;92.42;95990.66;5117082;28;20043;-66
2023/06/18 03:54:24;;;;;;;5.80;5.28;;;;;;;15.64;92.79;95990.03;5117302;28;20090;-66
2023/06/18 03:56:51;;;;;;;5.05;4.65;;;;;;;15.61;93.01;95984.97;5117018;28;20093;-66
2023/06/18 03:59:18;;;;;;;7.88;5.72;;;;;;;15.66;93.57;95982.03;5116890;28;20125;-68
2023/06/18 04:01:46;;;;;;;7.18;4.90;;;;;;;15.73;93.55;95987.72;5116946;28;20047;-64
2023/06/18 04:04:13;;;;;;;6.10;5.50;;;;;;;15.87;94.06;95986.78;5116984;28;20079;-65
2023/06/18 04:06:39;;;;;;;5.95;5.43;;;;;;;16.08;92.97;95989.78;5116949;28;20079;-66
2023/06/18 04:09:08;;;;;;;7.32;5.40;;;;;;;16.53;91.91;95994.56;5116728;28;20094;-67
2023/06/18 04:11:36;;;;;;;5.63;4.40;;;;;;;16.99;88.13;95992.22;5116722;28;20043;-66
2023/06/18 04:14:04;;;;;;;6.05;5.45;;;;;;;17.43;86.43;95994.38;5116652;28;20139;-67
2023/06/18 04:16:31;;;;;;;5.10;4.50;;;;;;;17.90;84.57;95998.81;5116609;28;20047;-66
2023/06/18 04:18:58;;;;;;;4.30;3.88;;;;;;;18.38;80.22;96000.47;5116553;28;20134;-66
2023/06/18 04:21:25;;;;;;;5.20;4.65;;;;;;;18.75;78.03;95999.34;5116573;27;20093;-66
2023/06/18 04:23:54;;;;;;;4.80;4.05;;;;;;;18.94;75.73;96004.00;5116542;28;20054;-65
2023/06/18 04:26:22;;;;;;;7.43;4.15;;;;;;;18.86;76.04;96003.81;5116479;28;20079;-66
2023/06/18 04:28:51;;;;;;;6.88;4.10;;;;;;;18.66;76.57;96002.75;5116497;27;20405;-67
2023/06/18 04:31:18;;;;;;;5.80;4.40;;;;;;;18.44;78.16;96013.22;5116379;27;20093;-65
2023/06/18 04:33:45;;;;;;;5.35;3.97;;;;;;;18.25;78.15;96012.97;5116401;28;20044;-67
2023/06/18 04:36:12;;;;;;;4.60;4.20;;;;;;;18.09;79.93;96013.28;5116311;28;20048;-66
2023/06/18 04:38:40;;;;;;;6.38;4.20;;;;;;;17.92;80.31;96012.78;5116307;28;20129;-65
2023/06/18 04:41:07;;;;;;;4.88;4.38;;;;;;;17.80;81.17;96017.19;5116003;28;20052;-67
2023/06/18 04:43:36;;;;;;;7.70;5.18;;;;;;;17.79;82.49;96026.94;5116244;28;20058;-66
2023/06/18 04:46:03;;;;;;;5.28;4.63;;;;;;;17.77;82.14;96018.28;5114860;28;20047;-66
2023/06/18 04:48:31;;;;;;;8.77;4.65;;;;;;;18.06;84.24;96019.66;5116328;28;20046;-66
2023/06/18 04:50:59;;;;;;;4.70;4.30;;;;;;;18.63;82.00;96027.66;5116089;28;20048;-67
2023/06/18 04:53:26;;;;;;;7.45;4.13;;;;;;;19.13;78.39;96021.13;5115958;28;20118;-66
2023/06/18 04:55:53;;;;;;;4.00;3.60;;;;;;;19.37;74.70;96025.38;5115967;28;20047;-66
2023/06/18 04:58:20;;;;;;;4.35;3.65;;;;;;;19.51;72.20;96024.22;5115829;28;20081;-67
2023/06/18 05:00:49;;;;;;;4.85;3.92;;;;;;;19.59;74.42;96034.22;5115896;28;20083;-66
2023/06/18 05:03:16;;;;;;;6.50;3.83;;;;;;;19.99;73.25;96031.84;5115913;28;20047;-66
2023/06/18 05:05:43;;;;;;;3.85;3.47;;;;;;;20.44;74.89;96031.56;5115730;28;20048;-66
2023/06/18 05:08:11;;;;;;;3.50;3.20;;;;;;;20.70;69.89;96032.94;5115773;28;20055;-66
2023/06/18 05:10:38;;;;;;;4.93;3.05;;;;;;;20.61;67.79;96033.72;5115584;28;20051;-66
2023/06/18 05:13:10;;;;;;;5.43;3.08;;;;;;;20.39;69.12;96036.44;5115644;28;20050;-67
2023/06/18 05:15:37;;;;;;;6.13;3.33;;;;;;;20.22;72.07;96045.84;5115654;28;20051;-66
2023/06/18 05:18:06;;;;;;;3.80;3.47;;;;;;;20.05;69.69;96042.00;5115411;28;20052;-66
2023/06/18 05:20:33;;;;;;;6.43;3.20;;;;;;;19.92;71.12;96042.13;5115482;28;20413;-66
2023/06/18 05:23:01;;;;;;;4.93;3.33;;;;;;;19.74;70.17;96045.34;5115383;28;20105;-67
2023/06/18 05:25:28;;;;;;;4.60;3.30;;;;;;;19.39;71.13;96049.94;5115251;28;20054;-67
2023/06/18 05:27:55;;;;;;;4.32;3.40;;;;;;;19.11;73.87;96048.72;5115328;28;20043;-67
2023/06/18 05:30:23;;;;;;;5.55;3.83;;;;;;;18.93;73.99;96057.97;5115374;27;20481;-67
2023/06/18 05:32:51;;;;;;;6.60;3.20;;;;;;;18.86;74.78;96055.94;5115147;28;20058;-66
2023/06/18 05:35:20;;;;;;;4.90;3.80;;;;;;;18.89;76.33;96056.53;5115188;28;20047;-67
2023/06/18 05:37:47;;;;;;;3.97;3.58;;;;;;;19.02;76.64;96053.75;5115202;28;20100;-67
2023/06/18 05:40:15;;;;;;;3.65;3.30;;;;;;;19.18;75.31;96058.69;5114951;28;20051;-67
2023/06/18 05:42:42;;;;;;;5.70;3.72;;;;;;;19.15;75.39;96060.75;5115104;28;20039;-68
2023/06/18 05:45:10;;;;;;;5.22;3.70;;;;;;;19.21;75.04;96064.72;5115022;28;20139;-67
2023/06/18 05:47:38;;;;;;;7.72;3.95;;;;;;;19.37;76.97;96066.97;5114970;28;20094;-67
2023/06/18 05:50:07;;;;;;;5.32;4.10;;;;;;;19.39;75.04;96070.34;5114953;28;20048;-67
2023/06/18 05:52:36;;;;;;;5.10;3.90;;;;;;;19.56;74.03;96074.25;5115229;28;20048;-68
2023/06/18 05:55:03;;;;;;;5.95;3.80;;;;;;;19.69;74.39;96077.56;5114677;28;20051;-67
2023/06/18 05:57:31;;;;;;;5.10;3.50;;;;;;;19.80;74.71;96079.34;5114285;28;20155;-67
2023/06/18 06:00:01;;;;;;;4.90;2.90;;;;;;;20.00;71.51;96079.50;5114549;28;20401;-65
2023/06/18 06:02:28;;;;;;;8.53;3.37;;;;;;;20.13;73.12;96079.34;5114703;28;20105;-66
2023/06/18 06:04:56;;;;;;;4.32;3.42;;;;;;;20.28;71.95;96086.97;5114643;28;20047;-67
2023/06/18 06:07:26;;;;;;;3.53;3.22;;;;;;;20.44;70.64;96082.03;5114583;28;20048;-66
2023/06/18 06:09:57;;;;;;;3.30;3.00;;;;;;;20.54;68.25;96081.25;5114515;28;20055;-66
2023/06/18 06:12:24;;;;;;;3.30;2.97;;;;;;;20.67;69.77;96079.22;5114611;28;20185;-66
2023/06/18 06:14:52;;;;;;;5.97;2.92;;;;;;;20.88;68.40;96077.47;5114552;28;20044;-66
2023/06/18 06:17:20;;;;;;;6.90;2.83;;;;;;;21.25;64.60;96079.56;5114214;28;20454;-66
2023/06/18 06:19:48;;;;;;;5.20;2.70;;;;;;;21.52;64.14;96080.72;5114096;28;20093;-67
2023/06/18 06:22:16;;;;;;;3.05;2.60;;;;;;;21.69;62.00;96083.69;5114272;28;20047;-68
2023/06/18 06:24:43;;;;;;;6.15;2.80;;;;;;;21.67;63.57;96089.16;5114385;28;20128;-67
2023/06/18 06:27:13;;;;;;;3.30;2.35;;;;;;;21.54;63.71;96096.56;5114181;28;20043;-67
2023/06/18 06:29:41;;;;;;;6.22;2.85;;;;;;;21.37;67.60;96090.09;5114279;28;20044;-68
2023/06/18 06:32:09;;;;;;;6.30;2.95;;;;;;;21.37;66.39;96093.59;5114005;28;20051;-67
2023/06/18 06:34:37;;;;;;;4.60;3.03;;;;;;;21.42;69.99;96099.34;5114055;28;20054;-66
2023/06/18 06:37:05;;;;;;;6.13;2.78;;;;;;;21.50;68.70;96087.19;5113881;28;20401;-68
2023/06/18 06:39:32;;;;;;;5.40;2.83;;;;;;;21.75;71.06;96092.94;5114113;28;20051;-68
2023/06/18 06:41:59;;;;;;;5.60;2.85;;;;;;;21.79;65.55;96092.56;5113722;28;20104;-67
2023/06/18 06:44:27;;;;;;;2.83;2.53;;;;;;;21.63;65.56;96097.53;5113939;28;20045;-67
2023/06/18 06:46:55;;;;;;;4.57;2.92;;;;;;;21.39;67.63;96096.09;5113908;28;20056;-68
2023/06/18 06:49:23;;;;;;;4.50;2.55;;;;;;;21.16;66.61;96104.34;5114134;28;20108;-67
2023/06/18 06:51:55;;;;;;;5.00;3.08;;;;;;;21.28;68.23;96097.09;5113834;28;20040;-68
2023/06/18 06:54:23;;;;;;;4.45;2.50;;;;;;;21.20;66.55;96095.94;5113828;28;20093;-66
2023/06/18 06:56:50;;;;;;;4.28;2.80;;;;;;;21.25;67.60;96100.84;5113752;28;20092;-68
2023/06/18 06:59:17;;;;;;;3.47;2.53;;;;;;;21.40;65.47;96101.28;5113948;28;20072;-67
2023/06/18 07:01:46;;;;;;;5.30;3.00;;;;;;;21.62;67.64;96104.72;5113676;28;20048;-66
2023/06/18 07:04:15;;;;;;;6.40;2.90;;;;;;;21.94;69.09;96097.44;5113501;28;20075;-68
2023/06/18 07:06:42;;;;;;;5.30;2.80;;;;;;;22.29;66.86;96100.50;5113618;28;20050;-69
2023/06/18 07:09:10;;;;;;;2.70;2.45;;;;;;;22.83;65.29;96095.50;5112832;28;20048;-66
2023/06/18 07:11:37;;;;;;;3.10;2.20;;;;;;;23.52;60.91;96097.00;5113512;28;20485;-68
2023/06/18 07:14:05;;;;;;;6.80;2.05;;;;;;;24.12;57.71;96105.38;5113564;28;20048;-68
2023/06/18 07:16:32;;;;;;;3.63;1.92;;;;;;;24.55;56.87;96112.72;5113609;28;20044;-68
2023/06/18 07:19:03;;;;;;;3.55;2.63;;;;;;;25.06;55.73;96114.72;5113528;28;20048;-66
2023/06/18 07:21:31;;;;;;;10.38;2.08;;;;;;;25.52;56.33;96121.59;5113418;28;20134;-68
2023/06/18 07:23:58;;;;;;;3.97;2.10;;;;;;;25.81;52.71;96121.19;5113518;28;20052;-67
2023/06/18 07:26:26;;;;;;;2.78;1.70;;;;;;;25.89;49.31;96117.69;5113398;28;20467;-66
2023/06/18 07:28:53;;;;;;;6.03;1.73;;;;;;;26.20;53.03;96117.03;5113418;28;20129;-68
2023/06/18 07:31:20;;;;;;;5.30;1.80;;;;;;;26.47;47.76;96127.59;5113548;28;20051;-67
2023/06/18 07:33:48;;;;;;;4.97;1.92;;;;;;;26.53;47.75;96126.06;5113418;28;20051;-69
2023/06/18 07:36:17;;;;;;;2.45;1.73;;;;;;;26.57;49.15;96122.91;5113281;28;20043;-68
2023/06/18 07:38:44;;;;;;;3.50;2.17;;;;;;;26.67;48.14;96121.88;5113359;28;20063;-68
2023/06/18 07:41:11;;;;;;;3.63;1.60;;;;;;;26.79;47.47;96122.34;5113058;28;20048;-67
2023/06/18 07:43:40;;;;;;;4.47;1.90;;;;;;;26.90;46.54;96131.91;5113207;28;20400;-67
2023/06/18 07:46:08;;;;;;;3.10;1.73;;;;;;;27.15;45.27;96126.47;5113171;28;20073;-67
2023/06/18 07:48:35;;;;;;;4.65;2.10;;;;;;;27.34;47.91;96133.28;5113296;28;20047;-67
2023/06/18 07:51:03;;;;;;;6.97;2.25;;;;;;;27.38;43.76;96134.59;5113310;28;20048;-68
2023/06/18 07:53:32;;;;;;;3.35;1.90;;;;;;;27.55;45.78;96126.47;5113523;28;20127;-67
2023/06/18 07:55:59;;;;;;;7.25;2.10;;;;;;;27.40;47.22;96129.06;5113147;28;20457;-68
2023/06/18 07:58:27;;;;;;;3.22;1.80;;;;;;;27.41;45.29;96128.88;5113056;28;20455;-68
2023/06/18 08:00:55;;;;;;;5.35;1.92;;;;;;;27.33;46.42;96134.28;5113047;28;20047;-67
2023/06/18 08:03:22;;;;;;;4.80;2.10;;;;;;;27.52;46.70;96133.03;5113031;28;20048;-67
2023/06/18 08:05:50;;;;;;;8.77;2.17;;;;;;;27.50;45.27;96132.34;5113124;28;20079;-66
2023/06/18 08:08:17;;;;;;;3.10;1.95;;;;;;;27.37;44.76;96139.16;5113168;28;20055;-67
2023/06/18 08:10:46;;;;;;;3.28;1.88;;;;;;;27.36;46.31;96137.44;5113155;28;20085;-67
2023/06/18 08:13:14;;;;;;;5.30;2.17;;;;;;;27.25;47.41;96133.31;5112957;28;20059;-67
2023/06/18 08:15:42;;;;;;;3.42;2.05;;;;;;;27.21;46.17;96139.22;5112922;28;20048;-66
2023/06/18 08:18:10;;;;;;;2.05;1.85;;;;;;;27.10;44.53;96140.41;5112976;28;20040;-67
2023/06/18 08:20:37;;;;;;;5.20;2.35;;;;;;;26.94;47.91;96135.91;5115635;28;20048;-66
2023/06/18 08:23:06;;;;;;;4.13;1.90;;;;;;;26.96;45.53;96137.41;5116624;28;20062;-68
2023/06/18 08:25:33;;;;;;;3.55;2.10;;;;;;;26.83;44.66;96142.47;5116510;27;20054;-67
2023/06/18 08:28:01;;;;;;;3.08;1.80;;;;;;;26.71;47.03;96132.09;5116536;28;20487;-66
2023/06/18 08:30:30;;;;;;;4.43;2.00;;;;;;;26.64;49.83;96135.63;5116493;28;20056;-66
2023/06/18 08:32:58;;;;;;;3.97;2.33;;;;;;;26.15;46.92;96138.13;5116534;27;20040;-67
2023/06/18 08:35:28;;;;;;;2.95;2.05;;;;;;;26.20;48.56;96132.25;5116400;28;20489;-66
2023/06/18 08:37:55;;;;;;;5.75;2.58;;;;;;;26.22;47.98;96130.25;5116251;27;20139;-66
2023/06/18 08:40:25;;;;;;;4.55;2.05;;;;;;;26.18;47.38;96145.81;5115825;28;20134;-66
2023/06/18 08:42:53;;;;;;;4.75;1.92;;;;;;;26.18;48.53;96148.50;5116342;28;20041;-66
2023/06/18 08:45:22;;;;;;;2.75;2.33;;;;;;;26.14;50.61;96144.50;5116199;28;20082;-66
2023/06/18 08:47:53;;;;;;;3.85;1.98;;;;;;;26.19;48.53;96149.34;5116079;28;20500;-65
2023/06/18 08:50:21;;;;;;;5.35;2.13;;;;;;;26.14;46.99;96151.69;5116008;28;20044;-66
2023/06/18 08:52:52;;;;;;;2.55;2.08;;;;;;;26.05;50.02;96149.00;5115983;28;20043;-65
2023/06/18 08:55:20;;;;;;;7.32;2.33;;;;;;;25.92;48.34;96146.81;5115967;27;20044;-66
2023/06/18 08:57:53;;;;;;;3.70;2.35;;;;;;;26.05;50.28;96138.28;5115959;28;20044;-66
2023/06/18 09:00:23;;;;;;;3.15;2.22;;;;;;;26.35;47.32;96143.19;5115959;28;20079;-66
2023/06/18 09:02:51;;;;;;;6.50;1.90;;;;;;;26.67;47.91;96138.78;5115713;28;20463;-66
2023/06/18 09:05:19;;;;;;;6.85;2.10;;;;;;;26.79;47.05;96154.53;5115787;28;20051;-66
2023/06/18 09:07:48;;;;;;;3.75;2.17;;;;;;;26.33;48.04;96138.00;5115688;28;20131;-66
2023/06/18 09:10:17;;;;;;;3.38;2.45;;;;;;;26.18;50.23;96144.97;5115772;28;20051;-66
2023/06/18 09:12:44;;;;;;;6.35;1.95;;;;;;;26.14;49.15;96141.81;5115780;28;20436;-66
2023/06/18 09:15:12;;;;;;;2.65;2.33;;;;;;;26.33;50.74;96143.34;5115655;28;20101;-66
2023/06/18 09:17:49;;;;;;;5.68;2.00;;;;;;;26.18;50.53;96147.66;5115570;27;20123;-67
2023/06/18 09:20:20;;;;;;;3.78;2.10;;;;;;;25.97;48.47;96151.66;5115515;28;20401;-66
2023/06/18 09:22:49;;;;;;;3.40;2.30;;;;;;;26.19;49.52;96142.13;5115373;28;20043;-67
2023/06/18 09:25:20;;;;;;;3.88;2.30;;;;;;;26.20;49.53;96148.34;5115382;28;20043;-66
2023/06/18 09:27:48;;;;;;;8.05;2.20;;;;;;;26.34;49.21;96147.69;5115328;28;20055;-67
2023/06/18 09:30:21;;;;;;;3.58;2.47;;;;;;;25.91;49.78;96158.50;5115379;28;20516;-66
2023/06/18 09:32:51;;;;;;;8.63;2.63;;;;;;;25.79;48.77;96149.97;5114105;28;20044;-66
2023/06/18 09:35:19;;;;;;;2.50;2.20;;;;;;;25.75;49.97;96151.28;5115227;28;20493;-67
2023/06/18 09:37:47;;;;;;;5.32;1.98;;;;;;;25.70;47.62;96156.28;5115249;28;20397;-67
2023/06/18 09:40:18;;;;;;;5.88;2.22;;;;;;;25.84;48.12;96146.78;5114803;28;20044;-66
2023/06/18 09:42:49;;;;;;;2.53;2.00;;;;;;;25.90;47.77;96150.66;5115148;27;20498;-66
2023/06/18 09:45:17;;;;;;;5.70;2.20;;;;;;;25.88;46.93;96147.31;5115027;28;20114;-67
2023/06/18 09:47:47;;;;;;;3.92;2.10;;;;;;;25.80;48.62;96148.13;5114912;28;20048;-67
2023/06/18 09:50:16;;;;;;;4.45;2.10;;;;;;;25.62;49.52;96151.78;5114969;28;20467;-67
2023/06/18 09:52:45;;;;;;;6.70;2.17;;;;;;;25.50;51.12;96145.84;5114568;28;20131;-66
2023/06/18 09:55:27;;;;;;;4.93;2.10;;;;;;;25.40;51.80;96148.63;5114495;28;20051;-67
2023/06/18 09:57:57;;;;;;;4.72;2.35;;;;;;;25.39;51.42;96143.44;5113331;28;20375;-67
2023/06/18 10:00:26;;;;;;;3.27;2.17;;;;;;;25.28;50.71;96147.28;5109207;28;20054;-67
2023/06/18 10:02:54;;;;;;;6.22;2.38;;;;;;;25.36;51.05;96134.75;5113166;27;20303;-67
2023/06/18 10:05:24;;;;;;;5.47;2.33;;;;;;;25.59;53.02;96134.16;5114861;28;20115;-66
2023/06/18 10:07:52;;;;;;;6.10;2.15;;;;;;;25.74;50.53;96128.19;5114237;28;20139;-66
2023/06/18 10:10:22;;;;;;;4.75;2.38;;;;;;;25.76;48.02;96128.03;5113577;28;20040;-67
2023/06/18 10:12:54;;;;;;;3.60;2.20;;;;;;;25.92;48.16;96121.88;5100544;28;20040;-66
2023/06/18 10:15:26;;;;;;;4.50;1.85;;;;;;;25.84;47.94;96125.38;5092650;28;20478;-66
2023/06/18 10:17:58;;;;;;;7.47;2.38;;;;;;;25.82;46.94;96124.69;5093995;28;20101;-67
2023/06/18 10:20:28;;;;;;;8.00;2.20;;;;;;;26.04;50.88;96123.22;5093883;28;20056;-67
2023/06/18 10:22:59;;;;;;;9.75;2.55;;;;;;;26.14;48.49;96117.69;5101661;28;20087;-67
2023/06/18 10:25:27;;;;;;;5.25;2.40;;;;;;;26.18;50.88;96120.84;5114213;28;20058;-67
2023/06/18 10:27:55;;;;;;;4.22;2.92;;;;;;;26.05;49.79;96124.03;5114137;28;20044;-67
2023/06/18 10:30:23;;;;;;;3.78;2.63;;;;;;;25.76;48.15;96126.19;5114195;28;20051;-67
2023/06/18 10:32:51;;;;;;;5.85;2.42;;;;;;;25.36;49.71;96121.38;5112032;28;20108;-67
2023/06/18 10:35:20;;;;;;;6.57;2.60;;;;;;;25.06;48.53;96123.59;5114155;28;20455;-67
2023/06/18 10:37:49;;;;;;;2.88;2.55;;;;;;;24.91;49.89;96118.00;5114283;28;20048;-67
2023/06/18 10:40:17;;;;;;;6.57;2.83;;;;;;;24.86;52.50;96115.75;5113689;27;20050;-67
2023/06/18 10:42:49;;;;;;;6.57;2.40;;;;;;;25.13;50.87;96109.59;5113902;28;20082;-67
2023/06/18 10:45:17;;;;;;;15.27;3.13;;;;;;;25.38;52.19;96115.00;5093757;28;20052;-67
2023/06/18 10:47:45;;;;;;;5.57;2.47;;;;;;;25.42;51.29;96117.22;5093463;28;20044;-67
2023/06/18 10:50:18;;;;;;;5.38;2.60;;;;;;;25.27;51.64;96125.00;5093653;28;20054;-67
2023/06/18 10:52:49;;;;;;;7.22;2.95;;;;;;;25.19;53.40;96127.66;5093343;28;20048;-67
2023/06/18 10:55:29;;;;;;;8.40;2.63;;;;;;;25.14;52.42;96122.78;5108869;28;20505;-67
2023/06/18 10:58:02;;;;;;;7.18;3.00;;;;;;;25.16;54.63;96126.13;5113751;28;20079;-67
2023/06/18 11:00:35;;;;;;;8.88;2.72;;;;;;;25.16;54.11;96120.78;5113694;28;20131;-67
2023/06/18 11:03:05;;;;;;;9.23;2.90;;;;;;;25.21;55.01;96115.78;5113591;28;20050;-67
2023/06/18 11:05:43;;;;;;;13.75;3.60;;;;;;;25.29;54.97;96112.31;5098935;28;20055;-67
2023/06/18 11:08:13;;;;;;;5.53;3.10;;;;;;;25.25;54.08;96110.94;5093000;28;20417;-67
2023/06/18 11:10:42;;;;;;;7.60;2.72;;;;;;;25.21;52.51;96110.44;5093337;28;20083;-67
2023/06/18 11:13:11;;;;;;;5.30;2.90;;;;;;;25.24;51.69;96107.44;5093108;28;20085;-67
2023/06/18 11:15:53;;;;;;;6.72;2.13;;;;;;;25.53;51.97;96104.53;5093124;28;20048;-67
2023/06/18 11:18:25;;;;;;;5.82;2.50;;;;;;;25.84;50.99;96099.44;5093166;28;20044;-67
2023/06/18 11:20:54;;;;;;;3.28;2.30;;;;;;;25.98;50.13;96092.56;5092995;28;20048;-67
2023/06/18 11:23:24;;;;;;;3.60;2.65;;;;;;;26.03;49.26;96091.25;5099150;28;20047;-67
2023/06/18 11:25:53;;;;;;;7.82;2.70;;;;;;;26.27;47.80;96089.56;5113467;28;20465;-67
2023/06/18 11:28:21;;;;;;;3.22;2.40;;;;;;;26.45;48.14;96094.75;5113381;28;20058;-67
2023/06/18 11:30:51;;;;;;;4.35;2.13;;;;;;;26.60;46.02;96093.06;5113325;28;20048;-67
2023/06/18 11:33:25;;;;;;;4.35;2.67;;;;;;;26.82;46.10;96090.66;5110568;28;20697;-67
2023/06/18 11:35:52;;;;;;;5.05;2.60;;;;;;;26.90;45.96;96097.84;5093033;28;20048;-67
2023/06/18 11:38:21;;;;;;;3.67;2.50;;;;;;;26.99;44.98;96094.16;5093246;28;20048;-67
2023/06/18 11:40:54;;;;;;;4.22;2.42;;;;;;;27.09;43.76;96090.44;5092733;28;20413;-67